createdAt,value
2022-08-25T00:00:42.771Z,9.30
2022-08-25T00:04:08.850Z,11.38
2022-08-25T00:07:31.312Z,11.15
2022-08-25T00:11:03.068Z,15.88
2022-08-25T00:14:28.064Z,12.30
2022-08-25T00:17:50.541Z,12.88
2022-08-25T00:21:13.431Z,10.52
2022-08-25T00:24:35.130Z,10.32
2022-08-25T00:27:59.168Z,13.73
2022-08-25T00:31:24.116Z,11.52
2022-08-25T00:35:00.822Z,12.65
2022-08-25T00:38:22.453Z,13.27
2022-08-25T00:41:44.875Z,11.05
2022-08-25T00:45:09.932Z,13.43
2022-08-25T00:48:31.820Z,12.85
2022-08-25T00:51:59.996Z,12.07
2022-08-25T00:55:26.656Z,11.05
2022-08-25T00:58:48.770Z,11.90
2022-08-25T01:02:13.955Z,11.30
2022-08-25T01:05:36.875Z,10.63
2022-08-25T01:08:58.670Z,11.23
2022-08-25T01:12:21.411Z,14.02
2022-08-25T01:15:43.633Z,11.30
2022-08-25T01:19:09.146Z,12.02
2022-08-25T01:22:39.000Z,11.40
2022-08-25T01:26:06.731Z,10.85
2022-08-25T01:29:29.185Z,15.57
2022-08-25T01:32:50.922Z,13.77
2022-08-25T01:36:12.550Z,13.30
2022-08-25T01:39:37.347Z,11.68
2022-08-25T01:43:07.874Z,14.38
2022-08-25T01:46:29.844Z,15.80
2022-08-25T01:49:51.451Z,14.75
2022-08-25T01:53:20.318Z,18.92
2022-08-25T01:56:43.961Z,15.52
2022-08-25T02:00:06.838Z,20.33
2022-08-25T02:03:32.751Z,18.00
2022-08-25T02:06:54.689Z,20.88
2022-08-25T02:10:16.597Z,26.50
2022-08-25T02:13:40.464Z,30.25
2022-08-25T02:17:02.142Z,26.40
2022-08-25T02:20:24.778Z,29.65
2022-08-25T02:23:46.649Z,35.30
2022-08-25T02:27:08.572Z,33.63
2022-08-25T02:30:31.936Z,34.83
2022-08-25T02:33:55.159Z,36.15
2022-08-25T02:37:17.246Z,37.35
2022-08-25T02:40:39.091Z,35.65
2022-08-25T02:44:01.862Z,33.10
2022-08-25T02:47:26.923Z,35.90
2022-08-25T02:50:51.643Z,36.10
2022-08-25T02:54:14.141Z,37.55
2022-08-25T02:57:36.119Z,35.42
2022-08-25T03:00:57.935Z,36.45
2022-08-25T03:04:20.890Z,33.42
2022-08-25T03:07:43.662Z,36.03
2022-08-25T03:11:07.285Z,36.17
2022-08-25T03:14:28.859Z,35.65
2022-08-25T03:17:50.705Z,33.95
2022-08-25T03:21:15.784Z,32.80
2022-08-25T03:24:38.047Z,32.72
2022-08-25T03:27:59.761Z,30.27
2022-08-25T03:31:22.092Z,31.27
2022-08-25T03:34:43.730Z,28.02
2022-08-25T03:38:07.518Z,24.95
2022-08-25T03:41:32.608Z,24.48
2022-08-25T03:44:54.671Z,21.58
2022-08-25T03:48:18.125Z,22.42
2022-08-25T03:51:42.974Z,22.98
2022-08-25T03:55:08.811Z,23.27
2022-08-25T03:58:30.609Z,23.55
2022-08-25T04:01:55.112Z,30.30
2022-08-25T04:05:17.260Z,24.77
2022-08-25T04:08:39.569Z,26.17
2022-08-25T04:12:03.410Z,27.42
2022-08-25T04:15:28.539Z,25.13
2022-08-25T04:18:52.865Z,29.70
2022-08-25T04:22:14.893Z,27.70
2022-08-25T04:25:36.781Z,24.85
2022-08-25T04:29:01.421Z,27.52
2022-08-25T04:32:23.085Z,31.70
2022-08-25T04:35:48.798Z,30.88
2022-08-25T04:39:10.893Z,29.80
2022-08-25T04:42:32.943Z,31.77
2022-08-25T04:45:56.557Z,29.73
2022-08-25T04:49:18.193Z,29.65
2022-08-25T04:52:40.358Z,31.42
2022-08-25T04:56:03.926Z,30.50
2022-08-25T04:59:27.369Z,31.40
2022-08-25T05:02:55.457Z,41.15
2022-08-25T05:06:17.295Z,34.35
2022-08-25T05:09:39.324Z,33.72
2022-08-25T05:13:01.230Z,39.25
2022-08-25T05:16:25.040Z,35.55
2022-08-25T05:19:48.371Z,40.53
2022-08-25T05:23:10.644Z,35.13
2022-08-25T05:26:33.978Z,43.20
2022-08-25T05:29:55.461Z,38.45
2022-08-25T05:33:18.481Z,35.53
2022-08-25T05:36:43.588Z,36.10
2022-08-25T05:40:07.296Z,38.08
2022-08-25T05:43:29.010Z,43.15
2022-08-25T05:46:51.423Z,53.17
2022-08-25T05:50:13.744Z,41.20
2022-08-25T05:53:38.417Z,49.53
2022-08-25T05:57:01.155Z,45.17
2022-08-25T06:00:23.620Z,46.85
2022-08-25T06:03:44.746Z,50.58
2022-08-25T06:07:06.622Z,48.65
2022-08-25T06:10:30.194Z,46.63
2022-08-25T06:13:52.266Z,53.45
2022-08-25T06:17:14.391Z,57.22
2022-08-25T06:20:37.145Z,48.33
2022-08-25T06:23:59.062Z,52.40
2022-08-25T06:27:22.479Z,55.25
2022-08-25T06:30:44.569Z,49.00
2022-08-25T06:34:06.460Z,52.80
2022-08-25T06:37:28.039Z,60.55
2022-08-25T06:40:52.108Z,51.17
2022-08-25T06:44:15.072Z,48.58
2022-08-25T06:47:36.984Z,48.33
2022-08-25T06:50:58.629Z,52.47
2022-08-25T06:54:20.650Z,56.30
2022-08-25T06:57:42.300Z,51.63
2022-08-25T07:01:15.812Z,46.65
2022-08-25T07:04:42.300Z,47.13
2022-08-25T07:08:04.532Z,41.25
2022-08-25T07:11:26.507Z,44.75
2022-08-25T07:15:03.460Z,42.30
2022-08-25T07:18:27.146Z,32.67
2022-08-25T07:21:52.163Z,26.02
2022-08-25T07:25:14.322Z,30.90
2022-08-25T07:28:39.905Z,25.90
2022-08-25T07:32:09.334Z,24.08
2022-08-25T07:35:37.491Z,22.77
2022-08-25T07:38:59.779Z,21.65
2022-08-25T07:42:21.980Z,19.45
2022-08-25T07:45:49.184Z,22.63
2022-08-25T07:49:16.704Z,18.45
2022-08-25T07:52:40.515Z,21.85
2022-08-25T07:59:30.071Z,18.63
2022-08-25T08:02:52.108Z,18.23
2022-08-25T08:06:17.760Z,13.88
2022-08-25T08:09:41.763Z,14.93
2022-08-25T08:13:07.118Z,15.07
2022-08-25T08:16:31.032Z,18.85
2022-08-25T08:19:54.476Z,17.73
2022-08-25T08:23:16.779Z,18.95
2022-08-25T08:26:57.389Z,17.70
2022-08-25T08:30:21.627Z,20.02
2022-08-25T08:33:45.445Z,16.92
2022-08-25T08:37:07.675Z,18.70
2022-08-25T08:40:37.501Z,17.98
2022-08-25T08:44:08.897Z,14.20
2022-08-25T08:47:44.668Z,14.95
2022-08-25T08:51:20.635Z,15.27
2022-08-25T08:54:48.204Z,16.38
2022-08-25T08:58:15.530Z,15.00
2022-08-25T09:01:46.819Z,12.68
2022-08-25T09:05:19.237Z,15.73
2022-08-25T09:08:44.942Z,14.60
2022-08-25T09:12:13.392Z,15.13
2022-08-25T09:15:59.230Z,15.32
2022-08-25T09:19:41.905Z,13.02
2022-08-25T09:23:15.520Z,14.65
2022-08-25T09:26:49.829Z,14.02
2022-08-25T09:30:14.502Z,11.90
2022-08-25T09:33:36.538Z,14.02
2022-08-25T09:37:00.234Z,15.85
2022-08-25T09:40:23.194Z,13.45
2022-08-25T09:43:53.346Z,15.88
2022-08-25T09:47:23.269Z,12.55
2022-08-25T09:50:46.775Z,14.05
2022-08-25T09:54:21.023Z,12.32
2022-08-25T09:57:52.912Z,13.65
2022-08-25T10:01:17.631Z,13.65
2022-08-25T10:04:41.201Z,14.95
2022-08-25T10:08:05.698Z,15.82
2022-08-25T10:11:39.310Z,13.43
2022-08-25T10:15:01.134Z,11.63
2022-08-25T10:18:26.674Z,12.43
2022-08-25T10:22:04.742Z,13.50
2022-08-25T10:25:31.271Z,13.88
2022-08-25T10:29:07.518Z,12.63
2022-08-25T10:32:44.696Z,14.95
2022-08-25T10:36:15.793Z,15.02
2022-08-25T10:39:44.408Z,12.55
2022-08-25T10:43:11.310Z,16.13
2022-08-25T10:46:49.971Z,12.45
2022-08-25T10:50:30.507Z,12.77
2022-08-25T10:53:58.326Z,14.65
2022-08-25T10:57:29.295Z,14.90
2022-08-25T11:01:00.462Z,16.42
2022-08-25T11:04:29.730Z,13.30
2022-08-25T11:08:02.030Z,12.73
2022-08-25T11:11:36.865Z,13.70
2022-08-25T11:15:03.230Z,17.08
2022-08-25T11:18:31.782Z,14.05
2022-08-25T11:22:02.974Z,12.70
2022-08-25T11:25:30.419Z,13.15
2022-08-25T11:28:59.922Z,13.52
2022-08-25T11:32:24.799Z,15.50
2022-08-25T11:35:54.389Z,15.00
2022-08-25T11:39:34.002Z,19.05
2022-08-25T11:43:08.494Z,13.98
2022-08-25T11:46:47.756Z,14.27
2022-08-25T11:50:30.267Z,16.83
2022-08-25T11:54:14.662Z,14.48
2022-08-25T11:57:39.423Z,15.63
2022-08-25T12:01:02.569Z,14.35
2022-08-25T12:04:44.440Z,15.88
2022-08-25T12:08:25.749Z,16.25
2022-08-25T12:11:51.327Z,16.60
2022-08-25T12:15:23.566Z,14.65
2022-08-25T12:18:46.865Z,11.88
2022-08-25T12:22:55.160Z,13.52
2022-08-25T12:26:28.902Z,19.20
2022-08-25T12:29:54.855Z,13.93
2022-08-25T12:33:30.229Z,16.42
2022-08-25T12:37:00.770Z,16.98
2022-08-25T12:40:27.859Z,12.65
2022-08-25T12:43:52.395Z,10.88
2022-08-25T12:47:33.818Z,11.07
2022-08-25T12:51:01.785Z,13.70
2022-08-25T12:54:33.277Z,16.33
2022-08-25T12:58:01.398Z,12.05
2022-08-25T13:01:36.350Z,12.63
2022-08-25T13:05:40.925Z,13.13
2022-08-25T13:09:59.676Z,15.95
2022-08-25T13:13:49.156Z,17.95
2022-08-25T13:17:12.103Z,11.93
2022-08-25T13:20:35.870Z,11.95
2022-08-25T13:24:04.637Z,12.43
2022-08-25T13:27:31.220Z,19.45
2022-08-25T13:31:07.626Z,14.88
2022-08-25T13:34:35.120Z,21.73
2022-08-25T13:38:13.791Z,13.38
2022-08-25T13:41:35.453Z,11.48
2022-08-25T13:45:00.374Z,16.08
2022-08-25T13:48:35.558Z,11.57
2022-08-25T13:51:57.609Z,13.45
2022-08-25T13:55:27.611Z,14.95
2022-08-25T13:58:50.368Z,15.43
2022-08-25T14:02:15.277Z,16.80
2022-08-25T14:05:45.611Z,13.15
2022-08-25T14:09:16.652Z,17.45
2022-08-25T14:12:41.600Z,18.52
2022-08-25T14:16:13.759Z,13.35
2022-08-25T14:19:45.814Z,14.23
2022-08-25T14:23:16.294Z,16.48
2022-08-25T14:26:53.928Z,14.00
2022-08-25T14:30:16.239Z,18.63
2022-08-25T14:33:55.303Z,17.38
2022-08-25T14:37:21.012Z,14.68
2022-08-25T14:40:48.078Z,13.40
2022-08-25T14:44:11.604Z,13.85
2022-08-25T14:47:33.586Z,15.45
2022-08-25T14:50:57.793Z,17.77
2022-08-25T14:54:23.677Z,15.07
2022-08-25T14:57:45.743Z,16.60
2022-08-25T15:01:08.390Z,16.73
2022-08-25T15:04:31.356Z,14.27
2022-08-25T15:08:12.245Z,16.48
2022-08-25T15:11:41.458Z,16.02
2022-08-25T15:15:04.346Z,18.27
2022-08-25T15:18:26.931Z,15.13
2022-08-25T15:21:49.655Z,20.98
2022-08-25T15:25:11.601Z,15.45
2022-08-25T15:28:34.710Z,15.10
2022-08-25T15:31:57.265Z,20.58
2022-08-25T15:35:19.750Z,17.70
2022-08-25T15:38:44.444Z,19.98
2022-08-25T15:42:07.022Z,19.35
2022-08-25T15:45:30.348Z,14.70
2022-08-25T15:48:52.700Z,20.25
2022-08-25T15:52:14.608Z,16.77
2022-08-25T15:55:39.634Z,17.23
2022-08-25T15:59:08.659Z,18.42
2022-08-25T16:02:33.356Z,19.17
2022-08-25T16:05:55.102Z,16.90
2022-08-25T16:09:16.536Z,17.75
2022-08-25T16:12:45.455Z,31.20
2022-08-25T16:16:08.052Z,16.52
2022-08-25T16:19:33.446Z,21.23
2022-08-25T16:23:00.511Z,16.95
2022-08-25T16:26:22.737Z,18.63
2022-08-25T16:29:45.609Z,18.73
2022-08-25T16:33:08.417Z,18.75
2022-08-25T16:36:32.782Z,21.05
2022-08-25T16:39:54.714Z,17.50
2022-08-25T16:43:17.715Z,17.30
2022-08-25T16:46:40.790Z,14.77
2022-08-25T16:50:03.565Z,19.25
2022-08-25T16:53:44.926Z,17.70
2022-08-25T16:57:10.633Z,20.15
2022-08-25T17:00:32.601Z,16.65
2022-08-25T17:03:55.841Z,29.08
2022-08-25T17:07:23.750Z,22.20
2022-08-25T17:10:47.851Z,18.42
2022-08-25T17:14:11.346Z,16.27
2022-08-25T17:17:36.010Z,20.23
2022-08-25T17:21:02.043Z,18.67
2022-08-25T17:24:29.354Z,15.23
2022-08-25T17:27:55.040Z,21.27
2022-08-25T17:31:17.227Z,16.08
2022-08-25T17:34:39.121Z,16.50
2022-08-25T17:38:00.903Z,16.35
2022-08-25T17:41:22.915Z,13.27
2022-08-25T17:44:46.923Z,20.92
2022-08-25T17:48:09.970Z,21.00
2022-08-25T17:51:32.040Z,14.10
2022-08-25T17:54:55.099Z,18.48
2022-08-25T17:58:21.250Z,14.65
2022-08-25T18:01:44.544Z,16.33
2022-08-25T18:05:07.766Z,24.63
2022-08-25T18:08:34.868Z,25.17
2022-08-25T18:11:57.376Z,20.02
2022-08-25T18:15:19.835Z,24.13
2022-08-25T18:18:42.781Z,23.10
2022-08-25T18:22:06.208Z,19.77
2022-08-25T18:25:28.834Z,27.20
2022-08-25T18:28:50.777Z,17.27
2022-08-25T18:32:13.206Z,18.15
2022-08-25T18:35:36.626Z,16.52
2022-08-25T18:39:17.076Z,21.00
2022-08-25T18:42:38.627Z,20.10
2022-08-25T18:46:00.756Z,18.33
2022-08-25T18:49:22.770Z,19.85
2022-08-25T18:52:50.308Z,18.00
2022-08-25T18:56:17.078Z,14.55
2022-08-25T18:59:39.460Z,24.13
2022-08-25T19:03:02.259Z,17.25
2022-08-25T19:06:24.781Z,15.48
2022-08-25T19:09:47.901Z,22.50
2022-08-25T19:13:13.048Z,16.52
2022-08-25T19:16:38.326Z,17.02
2022-08-25T19:20:00.105Z,19.20
2022-08-25T19:23:23.231Z,19.50
2022-08-25T19:26:46.646Z,21.73
2022-08-25T19:30:11.593Z,15.07
2022-08-25T19:33:43.941Z,16.40
2022-08-25T19:37:07.408Z,15.77
2022-08-25T19:40:30.906Z,14.50
2022-08-25T19:43:56.379Z,15.85
2022-08-25T19:47:20.294Z,15.20
2022-08-25T19:50:43.654Z,18.90
2022-08-25T19:54:05.913Z,19.48
2022-08-25T19:57:42.264Z,24.08
2022-08-25T20:01:07.392Z,17.73
2022-08-25T20:04:29.578Z,15.35
2022-08-25T20:07:52.951Z,16.90
2022-08-25T20:11:14.821Z,17.20
2022-08-25T20:14:36.644Z,19.00
2022-08-25T20:18:00.788Z,19.83
2022-08-25T20:21:25.117Z,19.30
2022-08-25T20:24:51.040Z,14.43
2022-08-25T20:28:18.669Z,19.38
2022-08-25T20:31:41.039Z,18.70
2022-08-25T20:35:09.780Z,19.08
2022-08-25T20:38:35.259Z,23.77
2022-08-25T20:41:57.445Z,20.17
2022-08-25T20:45:21.877Z,14.15
2022-08-25T20:48:45.723Z,20.98
2022-08-25T20:52:08.866Z,13.93
2022-08-25T20:55:31.486Z,15.38
2022-08-25T20:58:53.583Z,18.00
2022-08-25T21:02:15.378Z,16.85
2022-08-25T21:05:40.470Z,17.40
2022-08-25T21:09:06.319Z,17.92
2022-08-25T21:12:34.791Z,16.17
2022-08-25T21:15:56.890Z,14.55
2022-08-25T21:19:26.364Z,17.75
2022-08-25T21:22:55.791Z,18.13
2022-08-25T21:26:21.954Z,18.38
2022-08-25T21:29:44.608Z,16.83
2022-08-25T21:33:13.176Z,19.95
2022-08-25T21:36:35.748Z,18.10
2022-08-25T21:39:58.106Z,17.27
2022-08-25T21:43:21.487Z,15.75
2022-08-25T21:46:53.903Z,17.20
2022-08-25T21:50:16.293Z,22.85
2022-08-25T21:53:38.937Z,18.50
2022-08-25T21:57:02.785Z,24.40
2022-08-25T22:00:26.122Z,16.42
2022-08-25T22:03:48.633Z,18.13
2022-08-25T22:07:10.900Z,19.90
2022-08-25T22:10:32.422Z,17.05
2022-08-25T22:13:55.035Z,14.80
2022-08-25T22:17:21.161Z,15.43
2022-08-25T22:20:46.482Z,19.08
2022-08-25T22:24:08.812Z,17.00
2022-08-25T22:27:31.715Z,16.83
2022-08-25T22:30:53.858Z,17.67
2022-08-25T22:34:17.489Z,17.52
2022-08-25T22:37:39.533Z,13.90
2022-08-25T22:41:03.474Z,24.25
2022-08-25T22:44:26.190Z,18.60
2022-08-25T22:47:48.561Z,17.23
2022-08-25T22:51:14.053Z,17.05
2022-08-25T22:54:37.565Z,16.67
2022-08-25T22:57:59.721Z,14.63
2022-08-25T23:01:22.258Z,12.32
2022-08-25T23:04:43.854Z,16.42
2022-08-25T23:08:07.753Z,14.98
2022-08-25T23:11:29.878Z,18.55
2022-08-25T23:14:53.326Z,17.83
2022-08-25T23:18:15.755Z,17.38
2022-08-25T23:21:56.859Z,18.13
2022-08-25T23:25:21.083Z,19.75
2022-08-25T23:28:43.145Z,13.45
2022-08-25T23:32:07.346Z,17.73
2022-08-25T23:35:30.073Z,17.00
2022-08-25T23:38:52.027Z,16.35
2022-08-25T23:42:15.182Z,20.38
2022-08-25T23:45:37.202Z,21.42
2022-08-25T23:48:59.429Z,17.23
2022-08-25T23:52:21.627Z,15.65
2022-08-25T23:55:48.874Z,21.35
2022-08-25T23:59:16.488Z,17.85
